createdAt,value
2023-02-26T00:00:38.880Z,85642.75
2023-02-26T00:03:06.128Z,85641.25
2023-02-26T00:05:33.331Z,85628.22
2023-02-26T00:08:00.731Z,85639.38
2023-02-26T00:10:27.902Z,85631.56
2023-02-26T00:12:55.389Z,85644.59
2023-02-26T00:15:23.329Z,85637.91
2023-02-26T00:18:09.522Z,85643.50
2023-02-26T00:20:38.070Z,85640.91
2023-02-26T00:23:05.951Z,85635.31
2023-02-26T00:25:33.102Z,85641.28
2023-02-26T00:28:00.647Z,85637.56
2023-02-26T00:30:28.186Z,85633.09
2023-02-26T00:32:55.830Z,85633.84
2023-02-26T00:35:23.677Z,85643.53
2023-02-26T00:37:59.553Z,85634.59
2023-02-26T00:40:50.723Z,85641.28
2023-02-26T00:43:25.352Z,85644.28
2023-02-26T00:46:16.633Z,85644.25
2023-02-26T00:49:18.188Z,85645.72
2023-02-26T00:51:55.446Z,85644.25
2023-02-26T00:54:30.133Z,85643.13
2023-02-26T00:56:59.332Z,85641.69
2023-02-26T00:59:26.713Z,85637.94
2023-02-26T01:01:54.161Z,85646.13
2023-02-26T01:04:24.944Z,85653.97
2023-02-26T01:06:56.533Z,85650.25
2023-02-26T01:13:23.969Z,85649.88
2023-02-26T01:16:05.304Z,85658.06
2023-02-26T01:18:44.499Z,85645.41
2023-02-26T01:21:23.450Z,85639.47
2023-02-26T01:23:52.430Z,85640.94
2023-02-26T01:26:28.837Z,85645.03
2023-02-26T01:28:56.894Z,85643.91
2023-02-26T01:31:54.667Z,85637.22
2023-02-26T01:35:02.088Z,85637.97
2023-02-26T01:37:53.385Z,85639.81
2023-02-26T01:44:39.907Z,85639.78
2023-02-26T01:47:21.853Z,85640.53
2023-02-26T01:49:49.907Z,85642.78
2023-02-26T01:52:35.536Z,85641.69
2023-02-26T01:55:05.413Z,85645.00
2023-02-26T02:01:40.198Z,85630.16
2023-02-26T02:04:15.078Z,85627.91
2023-02-26T02:06:43.481Z,85628.28
2023-02-26T02:09:37.622Z,85629.03
2023-02-26T02:12:27.840Z,85619.72
2023-02-26T02:23:15.348Z,85615.97
2023-02-26T02:26:19.872Z,85614.50
2023-02-26T02:28:49.964Z,85608.94
2023-02-26T02:31:36.701Z,85609.31
2023-02-26T02:34:23.355Z,85609.28
2023-02-26T02:41:10.376Z,85616.72
2023-02-26T02:43:42.440Z,85625.66
2023-02-26T02:46:21.146Z,85615.25
2023-02-26T02:49:02.973Z,85620.03
2023-02-26T02:51:39.692Z,85624.50
2023-02-26T02:54:42.330Z,85629.69
2023-02-26T02:57:31.965Z,85628.22
2023-02-26T03:00:07.037Z,85628.97
2023-02-26T03:03:07.282Z,85623.38
2023-02-26T03:05:34.885Z,85633.03
2023-02-26T03:08:17.471Z,85629.31
2023-02-26T03:10:45.180Z,85627.84
2023-02-26T03:13:18.471Z,85621.53
2023-02-26T03:16:13.902Z,85636.38
2023-02-26T03:19:02.073Z,85637.53
2023-02-26T03:21:56.270Z,85638.63
2023-02-26T03:29:03.099Z,85649.00
2023-02-26T03:31:40.279Z,85654.16
2023-02-26T03:34:49.918Z,85668.66
2023-02-26T03:37:41.921Z,85651.22
2023-02-26T03:40:22.216Z,85649.72
2023-02-26T03:43:36.611Z,85648.56
2023-02-26T03:46:11.015Z,85648.94
2023-02-26T03:48:38.385Z,85649.69
2023-02-26T03:51:13.616Z,85661.63
2023-02-26T03:54:10.092Z,85676.88
2023-02-26T03:56:47.830Z,85680.25
2023-02-26T03:59:17.582Z,85669.84
2023-02-26T04:02:08.345Z,85673.91
2023-02-26T04:04:39.525Z,85671.31
2023-02-26T04:07:07.036Z,85672.44
2023-02-26T04:09:34.246Z,85676.88
2023-02-26T04:12:01.808Z,85679.13
2023-02-26T04:14:29.063Z,85679.09
2023-02-26T04:16:56.448Z,85679.09
2023-02-26T04:19:23.626Z,85683.91
2023-02-26T04:21:51.122Z,85694.63
2023-02-26T04:24:18.319Z,85693.47
2023-02-26T04:26:45.562Z,85706.50
2023-02-26T04:29:12.787Z,85701.69
2023-02-26T04:31:40.064Z,85713.19
2023-02-26T04:34:07.310Z,85710.94
2023-02-26T04:36:34.546Z,85721.34
2023-02-26T04:39:01.702Z,85720.59
2023-02-26T04:41:28.879Z,85728.41
2023-02-26T04:43:56.071Z,85734.72
2023-02-26T04:46:23.404Z,85743.25
2023-02-26T04:48:50.780Z,85738.84
2023-02-26T04:51:17.939Z,85735.06
2023-02-26T04:53:45.160Z,85737.72
2023-02-26T04:56:13.294Z,85729.94
2023-02-26T04:58:40.686Z,85728.06
2023-02-26T05:01:07.977Z,85732.94
2023-02-26T05:03:35.255Z,85720.97
2023-02-26T05:06:02.484Z,85712.13
2023-02-26T05:08:29.699Z,85719.47
2023-02-26T05:10:57.066Z,85734.38
2023-02-26T05:13:24.210Z,85739.22
2023-02-26T05:15:54.259Z,85734.72
2023-02-26T05:18:21.637Z,85735.88
2023-02-26T05:20:56.236Z,85745.81
2023-02-26T05:23:23.740Z,85750.25
2023-02-26T05:25:50.997Z,85743.16
2023-02-26T05:28:18.316Z,85734.63
2023-02-26T05:34:51.373Z,85738.34
2023-02-26T05:37:18.588Z,85741.31
2023-02-26T05:39:45.713Z,85742.41
2023-02-26T05:46:19.287Z,85759.09
2023-02-26T05:48:46.484Z,85770.25
2023-02-26T05:51:13.667Z,85756.13
2023-02-26T05:53:40.927Z,85771.75
2023-02-26T05:56:08.318Z,85768.41
2023-02-26T05:58:35.683Z,85766.13
2023-02-26T06:01:03.021Z,85767.91
2023-02-26T06:03:30.770Z,85773.94
2023-02-26T06:05:58.086Z,85781.66
2023-02-26T06:08:25.391Z,85780.91
2023-02-26T06:10:52.583Z,85782.69
2023-02-26T06:13:20.034Z,85783.13
2023-02-26T06:15:50.740Z,85787.88
2023-02-26T06:26:34.121Z,85809.84
2023-02-26T06:29:01.670Z,85821.66
2023-02-26T06:31:29.038Z,85824.91
2023-02-26T06:33:56.400Z,85830.41
2023-02-26T06:36:23.728Z,85832.63
2023-02-26T06:38:51.140Z,85834.66
2023-02-26T06:41:18.317Z,85842.53
2023-02-26T06:43:45.523Z,85847.69
2023-02-26T06:46:19.353Z,85853.88
2023-02-26T06:48:56.703Z,85851.31
2023-02-26T06:51:23.895Z,85870.81
2023-02-26T06:57:57.843Z,85871.09
2023-02-26T07:00:26.673Z,85879.81
2023-02-26T07:02:54.188Z,85874.34
2023-02-26T07:09:31.280Z,85884.25
2023-02-26T07:11:58.459Z,85887.94
2023-02-26T07:18:25.432Z,85893.28
2023-02-26T07:20:52.706Z,85891.16
2023-02-26T07:23:19.953Z,85906.03
2023-02-26T07:25:50.164Z,85921.41
2023-02-26T07:28:21.594Z,85914.56
2023-02-26T07:30:49.333Z,85923.75
2023-02-26T07:33:16.700Z,85922.66
2023-02-26T07:35:43.980Z,85925.25
2023-02-26T07:38:11.170Z,85924.75
2023-02-26T07:40:38.888Z,85928.19
2023-02-26T07:43:06.363Z,85926.19
2023-02-26T07:45:33.696Z,85924.91
2023-02-26T07:48:00.893Z,85939.34
2023-02-26T07:50:28.106Z,85945.38
2023-02-26T07:52:55.290Z,85932.41
2023-02-26T07:55:22.540Z,85931.78
2023-02-26T07:57:49.897Z,85936.03
2023-02-26T08:00:17.994Z,85933.75
2023-02-26T08:02:45.238Z,85923.06
2023-02-26T08:05:12.400Z,85932.13
2023-02-26T08:07:39.579Z,85928.25
2023-02-26T08:10:07.318Z,85940.34
2023-02-26T08:12:35.083Z,85929.66
2023-02-26T08:15:02.575Z,85932.28
2023-02-26T08:17:30.444Z,85923.34
2023-02-26T08:19:57.640Z,85935.72
2023-02-26T08:22:25.006Z,85946.22
2023-02-26T08:25:00.645Z,85968.13
2023-02-26T08:27:28.261Z,85968.84
2023-02-26T08:29:55.485Z,85971.81
2023-02-26T08:36:28.567Z,85967.56
2023-02-26T08:38:55.888Z,85983.34
2023-02-26T08:41:23.743Z,85990.88
2023-02-26T08:43:50.979Z,85980.88
2023-02-26T08:46:18.311Z,85987.50
2023-02-26T08:48:45.476Z,85992.38
2023-02-26T08:51:12.656Z,85990.94
2023-02-26T08:53:39.888Z,86013.56
2023-02-26T08:56:07.337Z,86005.00
2023-02-26T08:58:34.525Z,85995.38
2023-02-26T09:01:01.727Z,85990.25
2023-02-26T09:03:28.913Z,85966.63
2023-02-26T09:05:56.149Z,85952.28
2023-02-26T09:08:23.573Z,85971.69
2023-02-26T09:10:51.203Z,85981.31
2023-02-26T09:13:18.626Z,85980.78
2023-02-26T09:16:03.668Z,85979.09
2023-02-26T09:18:30.864Z,85976.22
2023-02-26T09:20:59.577Z,85967.09
2023-02-26T09:23:26.958Z,85970.78
2023-02-26T09:30:00.153Z,85975.69
2023-02-26T09:32:27.557Z,85973.88
2023-02-26T09:34:54.804Z,85980.03
2023-02-26T09:37:22.162Z,85980.50
2023-02-26T09:39:49.398Z,85994.69
2023-02-26T09:42:20.315Z,86003.00
2023-02-26T09:44:48.957Z,85989.25
2023-02-26T09:47:28.788Z,85974.13
2023-02-26T09:50:11.466Z,85971.59
2023-02-26T09:52:49.710Z,85950.31
2023-02-26T09:55:35.448Z,85962.97
2023-02-26T09:58:36.525Z,85975.66
2023-02-26T10:01:45.818Z,85976.50
2023-02-26T10:04:40.551Z,85981.84
2023-02-26T10:11:48.447Z,85991.25
2023-02-26T10:14:42.060Z,85975.34
2023-02-26T10:21:26.241Z,85965.97
2023-02-26T10:24:01.623Z,85966.63
2023-02-26T10:27:00.522Z,85982.25
2023-02-26T10:29:45.809Z,85988.97
2023-02-26T10:36:46.644Z,86019.16
2023-02-26T10:39:42.269Z,86013.66
2023-02-26T10:42:26.016Z,86013.69
2023-02-26T10:45:13.332Z,86027.19
2023-02-26T10:48:01.878Z,86018.34
2023-02-26T10:50:31.251Z,86013.91
2023-02-26T10:52:59.522Z,86001.41
2023-02-26T10:55:41.285Z,86010.72
2023-02-26T10:58:12.984Z,86014.91
2023-02-26T11:00:44.368Z,86001.31
2023-02-26T11:03:30.864Z,86017.84
2023-02-26T11:05:58.836Z,86026.97
2023-02-26T11:08:35.221Z,86036.31
2023-02-26T11:11:05.496Z,86037.47
2023-02-26T11:13:37.853Z,86078.47
2023-02-26T11:16:18.069Z,86071.75
2023-02-26T11:18:53.853Z,86059.13
2023-02-26T11:21:29.737Z,86061.72
2023-02-26T11:24:17.017Z,86062.31
2023-02-26T11:26:51.045Z,86059.88
2023-02-26T11:29:22.383Z,86059.63
2023-02-26T11:32:00.010Z,86061.00
2023-02-26T11:34:27.311Z,86050.16
2023-02-26T11:37:00.174Z,86055.63
2023-02-26T11:43:49.600Z,86058.00
2023-02-26T11:46:17.072Z,86058.03
2023-02-26T11:48:48.115Z,86043.47
2023-02-26T11:51:25.266Z,86049.44
2023-02-26T11:53:59.257Z,86040.88
2023-02-26T11:56:42.449Z,86044.22
2023-02-26T11:59:23.140Z,86029.28
2023-02-26T12:01:53.415Z,86033.00
2023-02-26T12:04:25.293Z,86026.66
2023-02-26T12:06:56.530Z,86055.38
2023-02-26T12:09:26.469Z,86054.94
2023-02-26T12:12:06.003Z,86042.66
2023-02-26T12:15:03.101Z,86032.13
2023-02-26T12:18:04.903Z,86030.59
2023-02-26T12:21:12.545Z,86028.94
2023-02-26T12:24:20.173Z,86022.59
2023-02-26T12:31:50.398Z,86017.50
2023-02-26T12:35:16.173Z,86048.94
2023-02-26T12:38:37.127Z,86036.19
2023-02-26T12:41:25.153Z,86021.00
2023-02-26T12:44:01.590Z,86027.81
2023-02-26T12:47:04.170Z,86022.72
2023-02-26T12:49:58.716Z,86021.97
2023-02-26T12:52:44.259Z,86031.69
2023-02-26T12:55:24.211Z,86030.94
2023-02-26T12:58:06.303Z,86020.06
2023-02-26T13:00:58.980Z,86026.78
2023-02-26T13:03:38.157Z,86008.09
2023-02-26T13:06:30.383Z,86043.22
2023-02-26T13:09:21.909Z,86041.81
2023-02-26T13:16:12.069Z,86054.88
2023-02-26T13:22:51.859Z,86057.81
2023-02-26T13:25:41.486Z,86071.28
2023-02-26T13:28:38.887Z,86057.03
2023-02-26T13:31:27.252Z,86061.09
2023-02-26T13:33:59.830Z,86054.59
2023-02-26T13:36:29.649Z,86077.63
2023-02-26T13:39:25.966Z,86082.84
2023-02-26T13:42:09.512Z,86087.66
2023-02-26T13:45:13.396Z,86079.06
2023-02-26T13:48:16.898Z,86084.75
2023-02-26T13:51:01.237Z,86085.13
2023-02-26T13:53:39.180Z,86103.13
2023-02-26T13:56:31.406Z,86101.88
2023-02-26T13:59:16.898Z,86102.41
2023-02-26T14:02:01.666Z,86105.50
2023-02-26T14:04:49.548Z,86115.63
2023-02-26T14:07:17.254Z,86089.03
2023-02-26T14:09:47.828Z,86132.59
2023-02-26T14:12:42.460Z,86128.16
2023-02-26T14:15:12.694Z,86127.38
2023-02-26T14:17:41.266Z,86121.31
2023-02-26T14:20:22.958Z,86134.94
2023-02-26T14:23:29.574Z,86142.06
2023-02-26T14:26:06.664Z,86162.47
2023-02-26T14:29:10.239Z,86165.06
2023-02-26T14:35:51.110Z,86167.47
2023-02-26T14:38:34.938Z,86171.13
2023-02-26T14:41:30.002Z,86170.59
2023-02-26T14:44:02.999Z,86171.66
2023-02-26T14:46:31.084Z,86184.06
2023-02-26T14:48:58.726Z,86183.75
2023-02-26T14:52:00.989Z,86183.41
2023-02-26T14:55:03.132Z,86181.72
2023-02-26T14:57:48.296Z,86191.06
2023-02-26T15:00:53.957Z,86191.81
2023-02-26T15:03:45.364Z,86199.13
2023-02-26T15:06:44.616Z,86206.06
2023-02-26T15:09:27.614Z,86213.38
2023-02-26T15:12:14.437Z,86223.06
2023-02-26T15:15:13.181Z,86231.72
2023-02-26T15:17:51.987Z,86240.19
2023-02-26T15:20:48.924Z,86235.50
2023-02-26T15:23:47.460Z,86238.94
2023-02-26T15:26:31.108Z,86246.47
2023-02-26T15:29:02.396Z,86250.09
2023-02-26T15:31:57.281Z,86255.41
2023-02-26T15:34:25.052Z,86252.72
2023-02-26T15:36:53.653Z,86265.69
2023-02-26T15:39:25.185Z,86251.78
2023-02-26T15:41:55.903Z,86263.81
2023-02-26T15:44:30.578Z,86276.91
2023-02-26T15:47:04.937Z,86265.16
2023-02-26T15:49:42.051Z,86267.34
2023-02-26T15:52:19.473Z,86279.47
2023-02-26T15:54:56.806Z,86287.66
2023-02-26T15:57:26.434Z,86300.34
2023-02-26T16:04:05.777Z,86308.81
2023-02-26T16:06:38.081Z,86323.72
2023-02-26T16:09:50.835Z,86320.28
2023-02-26T16:13:02.074Z,86328.78
2023-02-26T16:15:36.940Z,86330.59
2023-02-26T16:21:55.543Z,86349.72
2023-02-26T16:25:25.014Z,86358.69
2023-02-26T16:28:14.796Z,86348.22
2023-02-26T16:34:55.787Z,86367.63
2023-02-26T16:37:35.884Z,86362.59
2023-02-26T16:40:21.213Z,86361.41
2023-02-26T16:43:02.333Z,86366.81
2023-02-26T16:45:35.563Z,86362.09
2023-02-26T16:52:19.103Z,86396.19
2023-02-26T16:55:00.864Z,86379.81
2023-02-26T16:58:06.412Z,86382.41
2023-02-26T17:00:35.887Z,86393.84
2023-02-26T17:03:30.549Z,86399.53
2023-02-26T17:06:00.713Z,86401.06
2023-02-26T17:08:42.331Z,86406.72
2023-02-26T17:11:28.088Z,86406.91
2023-02-26T17:14:20.758Z,86411.16
2023-02-26T17:16:50.174Z,86420.19
2023-02-26T17:19:19.198Z,86422.28
2023-02-26T17:21:55.295Z,86432.41
2023-02-26T17:24:38.129Z,86427.88
2023-02-26T17:27:06.011Z,86438.19
2023-02-26T17:29:44.845Z,86444.44
2023-02-26T17:32:25.382Z,86447.19
2023-02-26T17:34:58.818Z,86456.97
2023-02-26T17:37:33.652Z,86466.09
2023-02-26T17:40:00.969Z,86475.03
2023-02-26T17:42:28.631Z,86482.34
2023-02-26T17:44:56.536Z,86476.44
2023-02-26T17:47:26.790Z,86479.47
2023-02-26T17:49:54.416Z,86473.84
2023-02-26T17:52:22.049Z,86483.03
2023-02-26T17:54:49.481Z,86486.63
2023-02-26T17:57:22.040Z,86491.03
2023-02-26T17:59:50.601Z,86496.63
2023-02-26T18:02:24.696Z,86495.53
2023-02-26T18:04:52.136Z,86497.19
2023-02-26T18:07:21.671Z,86500.97
2023-02-26T18:09:49.357Z,86504.22
2023-02-26T18:12:21.390Z,86502.41
2023-02-26T18:14:50.342Z,86502.31
2023-02-26T18:17:29.388Z,86496.88
2023-02-26T18:19:57.559Z,86493.22
2023-02-26T18:22:25.668Z,86502.75
2023-02-26T18:24:56.547Z,86505.34
2023-02-26T18:27:26.139Z,86512.25
2023-02-26T18:29:54.258Z,86518.69
2023-02-26T18:32:24.812Z,86520.03
2023-02-26T18:34:53.086Z,86530.75
2023-02-26T18:37:27.408Z,86534.47
2023-02-26T18:39:55.103Z,86533.75
2023-02-26T18:42:25.822Z,86530.22
2023-02-26T18:44:54.829Z,86535.72
2023-02-26T18:47:23.137Z,86530.84
2023-02-26T18:49:52.012Z,86539.78
2023-02-26T18:52:19.564Z,86534.31
2023-02-26T18:54:46.854Z,86534.09
2023-02-26T18:57:14.873Z,86533.34
2023-02-26T18:59:42.063Z,86539.50
2023-02-26T19:02:13.050Z,86533.22
2023-02-26T19:04:41.531Z,86531.31
2023-02-26T19:07:09.388Z,86533.56
2023-02-26T19:09:36.600Z,86536.91
2023-02-26T19:12:04.516Z,86530.56
2023-02-26T19:14:32.526Z,86544.13
2023-02-26T19:17:00.096Z,86541.69
2023-02-26T19:19:27.861Z,86546.97
2023-02-26T19:21:55.209Z,86552.56
2023-02-26T19:24:22.506Z,86548.88
2023-02-26T19:26:50.430Z,86557.97
2023-02-26T19:29:20.002Z,86561.19
2023-02-26T19:31:47.685Z,86555.06
2023-02-26T19:34:15.439Z,86559.91
2023-02-26T19:36:43.325Z,86563.25
2023-02-26T19:39:10.882Z,86558.94
2023-02-26T19:41:38.145Z,86555.91
2023-02-26T19:44:06.038Z,86557.88
2023-02-26T19:46:33.622Z,86559.16
2023-02-26T19:49:00.932Z,86565.09
2023-02-26T19:51:28.595Z,86561.53
2023-02-26T19:53:56.155Z,86562.59
2023-02-26T19:56:23.308Z,86567.13
2023-02-26T19:58:50.719Z,86560.88
2023-02-26T20:01:18.533Z,86575.66
2023-02-26T20:03:48.021Z,86570.56
2023-02-26T20:06:16.228Z,86580.59
2023-02-26T20:08:43.514Z,86579.00
2023-02-26T20:11:10.733Z,86581.59
2023-02-26T20:13:38.552Z,86579.09
2023-02-26T20:16:09.551Z,86580.28
2023-02-26T20:18:37.394Z,86582.75
2023-02-26T20:21:10.078Z,86575.94
2023-02-26T20:23:39.450Z,86576.84
2023-02-26T20:26:12.171Z,86584.16
2023-02-26T20:28:40.643Z,86583.41
2023-02-26T20:31:08.450Z,86583.50
2023-02-26T20:33:36.795Z,86581.66
2023-02-26T20:36:04.488Z,86582.75
2023-02-26T20:38:31.845Z,86578.31
2023-02-26T20:40:59.284Z,86584.25
2023-02-26T20:43:26.656Z,86582.84
2023-02-26T20:45:53.971Z,86593.63
2023-02-26T20:48:22.604Z,86583.63
2023-02-26T20:50:49.900Z,86585.44
2023-02-26T20:53:17.153Z,86591.69
2023-02-26T20:55:44.377Z,86591.38
2023-02-26T20:58:11.588Z,86593.22
2023-02-26T21:00:38.973Z,86593.00
2023-02-26T21:03:06.320Z,86597.53
2023-02-26T21:05:34.215Z,86596.00
2023-02-26T21:08:03.431Z,86602.56
2023-02-26T21:10:31.495Z,86593.31
2023-02-26T21:12:58.741Z,86597.53
2023-02-26T21:15:26.281Z,86598.25
2023-02-26T21:17:53.746Z,86601.81
2023-02-26T21:20:21.139Z,86600.19
2023-02-26T21:22:49.383Z,86603.78
2023-02-26T21:25:17.290Z,86600.41
2023-02-26T21:27:47.372Z,86604.88
2023-02-26T21:30:16.415Z,86608.59
2023-02-26T21:32:44.147Z,86607.75
2023-02-26T21:35:12.125Z,86600.31
2023-02-26T21:37:39.412Z,86601.50
2023-02-26T21:40:07.637Z,86611.66
2023-02-26T21:42:35.252Z,86607.53
2023-02-26T21:45:02.670Z,86604.31
2023-02-26T21:47:30.172Z,86608.94
2023-02-26T21:49:57.629Z,86611.09
2023-02-26T21:52:24.901Z,86610.91
2023-02-26T21:54:52.229Z,86615.31
2023-02-26T21:57:19.465Z,86604.88
2023-02-26T21:59:46.940Z,86617.34
2023-02-26T22:02:14.495Z,86622.97
2023-02-26T22:04:41.848Z,86617.03
2023-02-26T22:07:09.281Z,86623.28
2023-02-26T22:09:37.041Z,86635.91
2023-02-26T22:12:04.718Z,86629.31
2023-02-26T22:14:31.906Z,86631.03
2023-02-26T22:16:59.400Z,86624.47
2023-02-26T22:19:29.139Z,86634.06
2023-02-26T22:21:56.349Z,86629.63
2023-02-26T22:24:28.090Z,86629.41
2023-02-26T22:26:55.352Z,86636.53
2023-02-26T22:29:23.483Z,86642.78
2023-02-26T22:31:50.728Z,86637.31
2023-02-26T22:34:20.618Z,86635.03
2023-02-26T22:36:48.131Z,86641.59
2023-02-26T22:39:15.767Z,86650.13
2023-02-26T22:41:43.090Z,86645.50
2023-02-26T22:44:10.402Z,86649.91
2023-02-26T22:46:38.530Z,86651.44
2023-02-26T22:49:06.363Z,86656.59
2023-02-26T22:51:33.526Z,86654.75
2023-02-26T22:54:01.783Z,86654.13
2023-02-26T22:56:29.282Z,86662.63
2023-02-26T22:58:56.604Z,86655.94
2023-02-26T23:01:23.856Z,86661.13
2023-02-26T23:03:51.777Z,86671.59
2023-02-26T23:06:18.965Z,86669.72
2023-02-26T23:08:46.139Z,86663.91
2023-02-26T23:11:13.444Z,86669.75
2023-02-26T23:13:40.958Z,86673.81
2023-02-26T23:16:11.285Z,86679.00
2023-02-26T23:18:38.868Z,86676.41
2023-02-26T23:21:07.426Z,86680.41
2023-02-26T23:23:34.678Z,86682.34
2023-02-26T23:26:02.456Z,86683.22
2023-02-26T23:28:30.142Z,86678.56
2023-02-26T23:30:57.439Z,86683.81
2023-02-26T23:33:24.872Z,86689.22
2023-02-26T23:35:52.301Z,86685.66
2023-02-26T23:38:19.649Z,86683.50
2023-02-26T23:40:46.885Z,86692.34
2023-02-26T23:43:14.202Z,86693.50
2023-02-26T23:45:41.530Z,86695.44
2023-02-26T23:48:08.991Z,86689.94
2023-02-26T23:50:36.303Z,86690.84
2023-02-26T23:53:03.520Z,86696.88
2023-02-26T23:55:30.813Z,86695.50
2023-02-26T23:57:58.315Z,86703.44
